Time;durP1;ratioP1;P1;durP2;ratioP2;P2;SDS_P1;SDS_P2;PMS_P1;PMS_P2;Temp;Humidity;BMP_temperature;BMP_pressure;BME280_temperature;BME280_humidity;BME280_pressure;Samples;Min_cycle;Max_cycle;Signal;HPM_P1;HPM_P2
2021/08/19 00:01:54;;;;;;;;;;;;;;;;;;4990971;28;19925;-74
2021/08/19 00:04:19;;;;;;;;;;;;;;;;;;4998988;28;19917;-73
2021/08/19 00:06:44;;;;;;;;;;;;;;;;;;4990733;28;20012;-73
2021/08/19 00:09:10;;;;;;;;;;;;;;;;;;4990995;28;19929;-73
2021/08/19 00:11:35;;;;;;;;;;;;;;;;;;4999907;28;20003;-73
2021/08/19 00:14:00;;;;;;;;;;;;;;;;;;4993407;28;20286;-73
2021/08/19 00:16:25;;;;;;;;;;;;;;;;;;4999941;28;19918;-73
2021/08/19 00:18:51;;;;;;;;;;;;;;;;;;4989037;28;19920;-73
2021/08/19 00:21:16;;;;;;;;;;;;;;;;;;4997615;28;19917;-73
2021/08/19 00:23:41;;;;;;;;;;;;;;;;;;4999161;28;20024;-73
2021/08/19 00:26:06;;;;;;;;;;;;;;;;;;4996528;28;19925;-73
2021/08/19 00:28:31;;;;;;;;;;;;;;;;;;4996013;28;19925;-73
2021/08/19 00:30:57;;;;;;;;;;;;;;;;;;4990093;28;20393;-73
2021/08/19 00:33:22;;;;;;;;;;;;;;;;;;5005793;28;19924;-73
2021/08/19 00:35:47;;;;;;;;;;;;;;;;;;4996354;28;19988;-73
2021/08/19 00:38:12;;;;;;;;;;;;;;;;;;4992977;28;19971;-73
2021/08/19 00:40:38;;;;;;;;;;;;;;;;;;4997529;28;19925;-73
2021/08/19 00:43:03;;;;;;;;;;;;;;;;;;4994083;28;20000;-73
2021/08/19 00:45:29;;;;;;;;;;;;;;;;;;4995516;28;19918;-73
2021/08/19 00:47:54;;;;;;;;;;;;;;;;;;4996580;28;19933;-73
2021/08/19 00:50:19;;;;;;;;;;;;;;;;;;4996506;28;19921;-73
2021/08/19 00:52:44;;;;;;;;;;;;;;;;;;5004999;28;19971;-73
2021/08/19 00:55:10;;;;;;;;;;;;;;;;;;4997881;28;19925;-73
2021/08/19 00:57:35;;;;;;;;;;;;;;;;;;4999529;28;20318;-73
2021/08/19 01:00:00;;;;;;;;;;;;;;;;;;5002253;28;20323;-73
2021/08/19 01:02:25;;;;;;;;;;;;;;;;;;5010186;28;20360;-73
2021/08/19 01:04:50;;;;;;;;;;;;;;;;;;5000023;28;20765;-73
2021/08/19 01:07:16;;;;;;;;;;;;;;;;;;4996502;28;20263;-73
2021/08/19 01:09:41;;;;;;;;;;;;;;;;;;4995837;28;20468;-73
2021/08/19 01:12:06;;;;;;;;;;;;;;;;;;4996718;28;20195;-73
2021/08/19 01:14:32;;;;;;;;;;;;;;;;;;5024034;28;20435;-73
2021/08/19 01:16:57;;;;;;;;;;;;;;;;;;5027413;28;19937;-73
2021/08/19 01:19:22;;;;;;;;;;;;;;;;;;4989732;28;20059;-73
2021/08/19 01:21:47;;;;;;;;;;;;;;;;;;5010842;28;20335;-73
2021/08/19 01:24:13;;;;;;;;;;;;;;;;;;4995660;28;20286;-73
2021/08/19 01:26:38;;;;;;;;;;;;;;;;;;4992359;28;20302;-73
2021/08/19 01:29:04;;;;;;;;;;;;;;;;;;4994587;28;20299;-73
2021/08/19 01:31:29;;;;;;;;;;;;;;;;;;4991143;28;19917;-73
2021/08/19 01:33:55;;;;;;;;;;;;;;;;;;4991228;28;19964;-73
2021/08/19 01:36:20;;;;;;;;;;;;;;;;;;4995740;28;19929;-74
2021/08/19 01:38:45;;;;;;;;;;;;;;;;;;5018927;28;20499;-73
2021/08/19 01:41:10;;;;;;;;;;;;;;;;;;5000819;28;19921;-73
2021/08/19 01:43:36;;;;;;;;;;;;;;;;;;4993678;28;19918;-73
2021/08/19 01:46:01;;;;;;;;;;;;;;;;;;4992143;28;19924;-73
2021/08/19 01:48:26;;;;;;;;;;;;;;;;;;5002689;28;19972;-73
2021/08/19 01:50:51;;;;;;;;;;;;;;;;;;4990684;28;19918;-73
2021/08/19 01:53:16;;;;;;;;;;;;;;;;;;4995637;28;19918;-73
2021/08/19 01:55:42;;;;;;;;;;;;;;;;;;4989188;28;20008;-73
2021/08/19 01:58:08;;;;;;;;;;;;;;;;;;5003583;28;19928;-73
2021/08/19 02:00:33;;;;;;;;;;;;;;;;;;4994651;28;20274;-73
2021/08/19 02:02:58;;;;;;;;;;;;;;;;;;4992484;28;19918;-73
2021/08/19 02:05:23;;;;;;;;;;;;;;;;;;4985015;28;19917;-74
2021/08/19 02:07:48;;;;;;;;;;;;;;;;;;4991971;28;19926;-73
2021/08/19 02:10:14;;;;;;;;;;;;;;;;;;4988775;28;20358;-73
2021/08/19 02:12:39;;;;;;;;;;;;;;;;;;4993194;28;20234;-73
2021/08/19 02:15:04;;;;;;;;;;;;;;;;;;4987951;28;20276;-73
2021/08/19 02:17:29;;;;;;;;;;;;;;;;;;5009315;28;19928;-73
2021/08/19 02:19:55;;;;;;;;;;;;;;;;;;4991359;28;19943;-73
2021/08/19 02:22:20;;;;;;;;;;;;;;;;;;4993374;28;19913;-74
2021/08/19 02:24:45;;;;;;;;;;;;;;;;;;4997664;28;19913;-73
2021/08/19 02:27:10;;;;;;;;;;;;;;;;;;4993391;28;20294;-73
2021/08/19 02:29:36;;;;;;;;;;;;;;;;;;5007529;28;20008;-73
2021/08/19 02:32:01;;;;;;;;;;;;;;;;;;4991949;28;20059;-73
2021/08/19 02:34:26;;;;;;;;;;;;;;;;;;4987519;28;19948;-73
2021/08/19 02:36:51;;;;;;;;;;;;;;;;;;4996787;28;19918;-73
2021/08/19 02:39:16;;;;;;;;;;;;;;;;;;4988484;28;20174;-73
2021/08/19 02:41:42;;;;;;;;;;;;;;;;;;4994060;28;19970;-73
2021/08/19 02:44:07;;;;;;;;;;;;;;;;;;5006887;28;20265;-73
2021/08/19 02:46:32;;;;;;;;;;;;;;;;;;5021525;28;19940;-74
2021/08/19 02:48:57;;;;;;;;;;;;;;;;;;5025838;28;19929;-73
2021/08/19 02:51:22;;;;;;;;;;;;;;;;;;5023328;28;20382;-73
2021/08/19 02:53:48;;;;;;;;;;;;;;;;;;5012432;28;20436;-73
2021/08/19 02:56:13;;;;;;;;;;;;;;;;;;5023437;28;19983;-73
2021/08/19 02:58:38;;;;;;;;;;;;;;;;;;5001166;28;19913;-73
2021/08/19 03:01:03;;;;;;;;;;;;;;;;;;5008280;28;19917;-73
2021/08/19 03:03:29;;;;;;;;;;;;;;;;;;4991641;28;20441;-73
2021/08/19 03:05:54;;;;;;;;;;;;;;;;;;5009378;28;19917;-73
2021/08/19 03:08:19;;;;;;;;;;;;;;;;;;5019209;28;19925;-73
2021/08/19 03:10:44;;;;;;;;;;;;;;;;;;5006549;28;20004;-73
2021/08/19 03:13:10;;;;;;;;;;;;;;;;;;5012312;28;19975;-73
2021/08/19 03:15:35;;;;;;;;;;;;;;;;;;5007520;28;19956;-73
2021/08/19 03:18:00;;;;;;;;;;;;;;;;;;5010386;28;19945;-73
2021/08/19 03:20:25;;;;;;;;;;;;;;;;;;5021776;28;20099;-74
2021/08/19 03:22:51;;;;;;;;;;;;;;;;;;5006307;28;20396;-74
2021/08/19 03:25:16;;;;;;;;;;;;;;;;;;5012208;28;19968;-74
2021/08/19 03:27:42;;;;;;;;;;;;;;;;;;5005964;28;20020;-73
2021/08/19 03:30:07;;;;;;;;;;;;;;;;;;5011389;28;19918;-73
2021/08/19 03:32:32;;;;;;;;;;;;;;;;;;5008353;28;19924;-73
2021/08/19 03:34:57;;;;;;;;;;;;;;;;;;5005840;28;19964;-73
2021/08/19 03:37:26;;;;;;;;;;;;;;;;;;5011978;28;19913;-74
2021/08/19 03:39:53;;;;;;;;;;;;;;;;;;5006590;28;19957;-74
2021/08/19 03:42:18;;;;;;;;;;;;;;;;;;5011422;28;20366;-74
2021/08/19 03:44:44;;;;;;;;;;;;;;;;;;5004468;28;19941;-74
2021/08/19 03:47:11;;;;;;;;;;;;;;;;;;5007571;28;20359;-74
2021/08/19 03:49:36;;;;;;;;;;;;;;;;;;5009607;28;19988;-73
2021/08/19 03:52:01;;;;;;;;;;;;;;;;;;5005607;28;19918;-73
2021/08/19 03:54:27;;;;;;;;;;;;;;;;;;5006158;28;19924;-72
2021/08/19 03:56:53;;;;;;;;;;;;;;;;;;4996262;28;20366;-73
2021/08/19 03:59:18;;;;;;;;;;;;;;;;;;4995332;28;20675;-73
2021/08/19 04:01:43;;;;;;;;;;;;;;;;;;5002688;28;19913;-72
2021/08/19 04:04:08;;;;;;;;;;;;;;;;;;4994299;28;20458;-72
2021/08/19 04:06:33;;;;;;;;;;;;;;;;;;4996114;28;19917;-72
2021/08/19 04:08:59;;;;;;;;;;;;;;;;;;4991861;28;19925;-72
2021/08/19 04:11:25;;;;;;;;;;;;;;;;;;4991565;28;20406;-72
2021/08/19 04:13:51;;;;;;;;;;;;;;;;;;4998865;28;19972;-72
2021/08/19 04:16:16;;;;;;;;;;;;;;;;;;4990961;28;20350;-72
2021/08/19 04:18:41;;;;;;;;;;;;;;;;;;4997078;28;19917;-72
2021/08/19 04:21:06;;;;;;;;;;;;;;;;;;4988503;28;19956;-72
2021/08/19 04:23:33;;;;;;;;;;;;;;;;;;4992166;28;20154;-70
2021/08/19 04:25:59;;;;;;;;;;;;;;;;;;5011559;28;19969;-71
2021/08/19 04:28:24;;;;;;;;;;;;;;;;;;5007359;28;19933;-71
2021/08/19 04:30:49;;;;;;;;;;;;;;;;;;4998100;28;19918;-71
2021/08/19 04:33:14;;;;;;;;;;;;;;;;;;4993134;28;19925;-72
2021/08/19 04:35:42;;;;;;;;;;;;;;;;;;5028504;28;20254;-70
2021/08/19 04:38:07;;;;;;;;;;;;;;;;;;5005968;28;19940;-72
2021/08/19 04:40:34;;;;;;;;;;;;;;;;;;4999021;28;20017;-70
2021/08/19 04:43:00;;;;;;;;;;;;;;;;;;5035027;28;19997;-71
2021/08/19 04:45:25;;;;;;;;;;;;;;;;;;4989392;28;19917;-71
2021/08/19 04:47:50;;;;;;;;;;;;;;;;;;4991597;28;19939;-73
2021/08/19 04:50:15;;;;;;;;;;;;;;;;;;4998299;28;19918;-70
2021/08/19 04:52:40;;;;;;;;;;;;;;;;;;5007302;28;20004;-70
2021/08/19 04:55:06;;;;;;;;;;;;;;;;;;4998517;28;20027;-70
2021/08/19 04:57:31;;;;;;;;;;;;;;;;;;4997084;28;19917;-71
2021/08/19 04:59:56;;;;;;;;;;;;;;;;;;5028576;28;20001;-70
2021/08/19 05:02:21;;;;;;;;;;;;;;;;;;4995111;28;20424;-70
2021/08/19 05:04:46;;;;;;;;;;;;;;;;;;4991842;28;19952;-69
2021/08/19 05:07:12;;;;;;;;;;;;;;;;;;4997183;28;20070;-70
2021/08/19 05:09:37;;;;;;;;;;;;;;;;;;4992030;28;19922;-70
2021/08/19 05:12:02;;;;;;;;;;;;;;;;;;4989564;28;19918;-70
2021/08/19 05:14:27;;;;;;;;;;;;;;;;;;4991896;28;19918;-70
2021/08/19 05:16:53;;;;;;;;;;;;;;;;;;4989455;28;20366;-70
2021/08/19 05:19:18;;;;;;;;;;;;;;;;;;4995582;28;20008;-70
2021/08/19 05:21:44;;;;;;;;;;;;;;;;;;4992158;28;19957;-70
2021/08/19 05:24:09;;;;;;;;;;;;;;;;;;4992314;28;19918;-70
2021/08/19 05:26:34;;;;;;;;;;;;;;;;;;4994907;28;19925;-71
2021/08/19 05:29:00;;;;;;;;;;;;;;;;;;4990954;28;20339;-70
2021/08/19 05:31:25;;;;;;;;;;;;;;;;;;4996247;28;19917;-70
2021/08/19 05:33:50;;;;;;;;;;;;;;;;;;4989956;28;20302;-70
2021/08/19 05:36:16;;;;;;;;;;;;;;;;;;4999757;28;20276;-70
2021/08/19 05:38:41;;;;;;;;;;;;;;;;;;5026373;28;19921;-70
2021/08/19 05:41:06;;;;;;;;;;;;;;;;;;4987144;28;19927;-71
2021/08/19 05:43:31;;;;;;;;;;;;;;;;;;4993647;28;19926;-72
2021/08/19 05:45:56;;;;;;;;;;;;;;;;;;4987885;28;20048;-72
2021/08/19 05:48:22;;;;;;;;;;;;;;;;;;5007611;28;19925;-71
2021/08/19 05:50:47;;;;;;;;;;;;;;;;;;5023274;28;19925;-69
2021/08/19 05:53:12;;;;;;;;;;;;;;;;;;4997662;28;19967;-68
2021/08/19 05:55:40;;;;;;;;;;;;;;;;;;5009222;28;20133;-69
2021/08/19 05:58:05;;;;;;;;;;;;;;;;;;5007531;28;19914;-68
2021/08/19 06:00:30;;;;;;;;;;;;;;;;;;5017406;28;19927;-69
2021/08/19 06:02:55;;;;;;;;;;;;;;;;;;5002883;28;19990;-69
2021/08/19 06:05:21;;;;;;;;;;;;;;;;;;5006764;28;19921;-70
2021/08/19 06:07:46;;;;;;;;;;;;;;;;;;5008907;28;19921;-68
2021/08/19 06:10:11;;;;;;;;;;;;;;;;;;5005233;28;19926;-71
2021/08/19 06:12:36;;;;;;;;;;;;;;;;;;5038357;28;19918;-68
2021/08/19 06:15:01;;;;;;;;;;;;;;;;;;4992133;28;19914;-71
2021/08/19 06:17:27;;;;;;;;;;;;;;;;;;5007678;28;19923;-70
2021/08/19 06:19:52;;;;;;;;;;;;;;;;;;5009383;28;20147;-71
2021/08/19 06:22:17;;;;;;;;;;;;;;;;;;5037508;28;19924;-70
2021/08/19 06:24:42;;;;;;;;;;;;;;;;;;5008041;28;19925;-70
2021/08/19 06:27:08;;;;;;;;;;;;;;;;;;5007609;28;20449;-70
2021/08/19 06:29:33;;;;;;;;;;;;;;;;;;5020412;28;19925;-70
2021/08/19 06:31:58;;;;;;;;;;;;;;;;;;5007246;28;19979;-70
2021/08/19 06:34:25;;;;;;;;;;;;;;;;;;5007490;28;20401;-71
2021/08/19 06:36:50;;;;;;;;;;;;;;;;;;5007257;28;19921;-70
2021/08/19 06:39:18;;;;;;;;;;;;;;;;;;5021590;28;20469;-70
2021/08/19 06:41:43;;;;;;;;;;;;;;;;;;5007546;28;19922;-71
2021/08/19 06:44:08;;;;;;;;;;;;;;;;;;5003660;28;19918;-69
2021/08/19 06:46:33;;;;;;;;;;;;;;;;;;5035710;28;19925;-69
2021/08/19 06:48:59;;;;;;;;;;;;;;;;;;5006843;28;19989;-69
2021/08/19 06:51:24;;;;;;;;;;;;;;;;;;5007620;28;20284;-71
2021/08/19 06:53:49;;;;;;;;;;;;;;;;;;5023290;28;19918;-69
2021/08/19 06:56:14;;;;;;;;;;;;;;;;;;5009516;28;19945;-70
2021/08/19 06:58:40;;;;;;;;;;;;;;;;;;5009707;28;20350;-70
2021/08/19 07:01:05;;;;;;;;;;;;;;;;;;5006183;28;19917;-69
2021/08/19 07:03:30;;;;;;;;;;;;;;;;;;5004509;28;20126;-69
2021/08/19 07:05:55;;;;;;;;;;;;;;;;;;5005877;28;19918;-69
2021/08/19 07:08:21;;;;;;;;;;;;;;;;;;5008560;28;20341;-71
2021/08/19 07:10:46;;;;;;;;;;;;;;;;;;5007338;28;20001;-69
2021/08/19 07:13:11;;;;;;;;;;;;;;;;;;5007065;28;19929;-68
2021/08/19 07:15:36;;;;;;;;;;;;;;;;;;5008514;28;19917;-70
2021/08/19 07:18:02;;;;;;;;;;;;;;;;;;5036058;28;20012;-69
2021/08/19 07:20:27;;;;;;;;;;;;;;;;;;5037147;28;19914;-69
2021/08/19 07:22:52;;;;;;;;;;;;;;;;;;5028130;28;19918;-69
2021/08/19 07:25:17;;;;;;;;;;;;;;;;;;5023497;28;19918;-71
2021/08/19 07:27:43;;;;;;;;;;;;;;;;;;5004717;28;19925;-70
2021/08/19 07:30:08;;;;;;;;;;;;;;;;;;5005727;28;19914;-69
2021/08/19 07:32:33;;;;;;;;;;;;;;;;;;5021861;28;19918;-70
2021/08/19 07:35:01;;;;;;;;;;;;;;;;;;5007453;28;19948;-68
2021/08/19 07:37:26;;;;;;;;;;;;;;;;;;5038702;28;20377;-69
2021/08/19 07:39:51;;;;;;;;;;;;;;;;;;5007941;28;20438;-72
2021/08/19 07:42:19;;;;;;;;;;;;;;;;;;5006742;28;19966;-70
2021/08/19 07:44:46;;;;;;;;;;;;;;;;;;5008450;28;19913;-70
2021/08/19 07:47:12;;;;;;;;;;;;;;;;;;5010383;28;20386;-71
2021/08/19 07:49:37;;;;;;;;;;;;;;;;;;5010464;28;20345;-71
2021/08/19 07:52:02;;;;;;;;;;;;;;;;;;5005945;28;20338;-69
2021/08/19 07:54:27;;;;;;;;;;;;;;;;;;5005653;28;20419;-71
2021/08/19 07:56:53;;;;;;;;;;;;;;;;;;5010247;28;19922;-69
2021/08/19 07:59:18;;;;;;;;;;;;;;;;;;5009759;28;20459;-70
2021/08/19 08:01:43;;;;;;;;;;;;;;;;;;5010823;28;19918;-69
2021/08/19 08:04:08;;;;;;;;;;;;;;;;;;5008091;28;20248;-71
2021/08/19 08:06:34;;;;;;;;;;;;;;;;;;5010915;28;20358;-70
2021/08/19 08:08:59;;;;;;;;;;;;;;;;;;5009848;28;19933;-70
2021/08/19 08:11:24;;;;;;;;;;;;;;;;;;5037592;28;19993;-70
2021/08/19 08:13:49;;;;;;;;;;;;;;;;;;5011157;28;20016;-69
2021/08/19 08:16:15;;;;;;;;;;;;;;;;;;5010897;28;19925;-70
2021/08/19 08:18:41;;;;;;;;;;;;;;;;;;5042806;28;19929;-69
2021/08/19 08:21:06;;;;;;;;;;;;;;;;;;5010243;28;19918;-71
2021/08/19 08:23:36;;;;;;;;;;;;;;;;;;5008482;28;19927;-71
2021/08/19 08:26:02;;;;;;;;;;;;;;;;;;5007422;28;19948;-70
2021/08/19 08:28:30;;;;;;;;;;;;;;;;;;5008915;28;19937;-71
2021/08/19 08:30:56;;;;;;;;;;;;;;;;;;5011622;28;20721;-72
2021/08/19 08:33:21;;;;;;;;;;;;;;;;;;5024858;28;19928;-70
2021/08/19 08:35:46;;;;;;;;;;;;;;;;;;5010518;28;19944;-71
2021/08/19 08:38:13;;;;;;;;;;;;;;;;;;5009847;28;20011;-71
2021/08/19 08:40:39;;;;;;;;;;;;;;;;;;5026695;28;19922;-70
2021/08/19 08:43:04;;;;;;;;;;;;;;;;;;5008515;28;19947;-69
2021/08/19 08:45:34;;;;;;;;;;;;;;;;;;5010010;28;19921;-70
2021/08/19 08:47:59;;;;;;;;;;;;;;;;;;5006664;28;19925;-72
2021/08/19 08:50:25;;;;;;;;;;;;;;;;;;5010389;28;20015;-71
2021/08/19 08:52:51;;;;;;;;;;;;;;;;;;5023057;28;19989;-70
2021/08/19 08:55:16;;;;;;;;;;;;;;;;;;5011910;28;19917;-70
2021/08/19 08:57:41;;;;;;;;;;;;;;;;;;5007222;28;19929;-72
2021/08/19 09:00:07;;;;;;;;;;;;;;;;;;5007800;28;19917;-71
2021/08/19 09:02:32;;;;;;;;;;;;;;;;;;5039634;28;19951;-69
2021/08/19 09:04:57;;;;;;;;;;;;;;;;;;5010561;28;19953;-71
2021/08/19 09:07:22;;;;;;;;;;;;;;;;;;5009504;28;19952;-70
2021/08/19 09:09:47;;;;;;;;;;;;;;;;;;5012718;28;19973;-71
2021/08/19 09:12:13;;;;;;;;;;;;;;;;;;5043214;28;19937;-69
2021/08/19 09:14:41;;;;;;;;;;;;;;;;;;5009737;28;19914;-69
2021/08/19 09:17:08;;;;;;;;;;;;;;;;;;5007099;28;19918;-70
2021/08/19 09:19:33;;;;;;;;;;;;;;;;;;5012850;28;19918;-70
2021/08/19 09:21:59;;;;;;;;;;;;;;;;;;5008329;28;19925;-71
2021/08/19 09:24:24;;;;;;;;;;;;;;;;;;5012656;28;19993;-73
2021/08/19 09:26:49;;;;;;;;;;;;;;;;;;5008269;28;19922;-72
2021/08/19 09:29:15;;;;;;;;;;;;;;;;;;5025346;28;19928;-72
2021/08/19 09:31:40;;;;;;;;;;;;;;;;;;5007913;28;20329;-71
2021/08/19 09:34:05;;;;;;;;;;;;;;;;;;5009192;28;20318;-73
2021/08/19 09:36:30;;;;;;;;;;;;;;;;;;5008085;28;19914;-72
2021/08/19 09:38:56;;;;;;;;;;;;;;;;;;5008385;28;20335;-73
2021/08/19 09:41:21;;;;;;;;;;;;;;;;;;5011977;28;20252;-72
2021/08/19 09:43:46;;;;;;;;;;;;;;;;;;5007070;28;19945;-71
2021/08/19 09:46:11;;;;;;;;;;;;;;;;;;5010427;28;19975;-72
2021/08/19 09:48:37;;;;;;;;;;;;;;;;;;5008201;28;19952;-70
2021/08/19 09:51:02;;;;;;;;;;;;;;;;;;5008488;28;19952;-72
2021/08/19 09:53:27;;;;;;;;;;;;;;;;;;5006961;28;20378;-73
2021/08/19 09:55:53;;;;;;;;;;;;;;;;;;5007486;28;20209;-71
2021/08/19 09:58:18;;;;;;;;;;;;;;;;;;5007934;28;19918;-70
2021/08/19 10:00:43;;;;;;;;;;;;;;;;;;5008871;28;19918;-68
2021/08/19 10:03:10;;;;;;;;;;;;;;;;;;5007223;28;19914;-72
2021/08/19 10:05:40;;;;;;;;;;;;;;;;;;5013089;28;19924;-70
2021/08/19 10:08:08;;;;;;;;;;;;;;;;;;5005262;28;19983;-73
2021/08/19 10:10:33;;;;;;;;;;;;;;;;;;5022119;28;20643;-71
2021/08/19 10:12:59;;;;;;;;;;;;;;;;;;5021977;28;19945;-72
2021/08/19 10:15:26;;;;;;;;;;;;;;;;;;5010103;28;20382;-73
2021/08/19 10:17:51;;;;;;;;;;;;;;;;;;5009882;28;20171;-73
2021/08/19 10:20:17;;;;;;;;;;;;;;;;;;5008256;28;20420;-75
2021/08/19 10:22:42;;;;;;;;;;;;;;;;;;5006978;28;19928;-73
2021/08/19 10:25:07;;;;;;;;;;;;;;;;;;5020915;28;20007;-74
2021/08/19 10:27:32;;;;;;;;;;;;;;;;;;5023977;28;20447;-72
2021/08/19 10:30:02;;;;;;;;;;;;;;;;;;5041350;28;20441;-72
2021/08/19 10:32:28;;;;;;;;;;;;;;;;;;5007688;28;19917;-70
2021/08/19 10:34:53;;;;;;;;;;;;;;;;;;5005632;28;19940;-72
2021/08/19 10:37:18;;;;;;;;;;;;;;;;;;5003850;28;19989;-71
2021/08/19 10:39:44;;;;;;;;;;;;;;;;;;5005218;28;19971;-73
2021/08/19 10:42:09;;;;;;;;;;;;;;;;;;5006871;28;19953;-71
2021/08/19 10:44:35;;;;;;;;;;;;;;;;;;5010236;28;19921;-72
2021/08/19 10:47:01;;;;;;;;;;;;;;;;;;5009487;28;19918;-72
2021/08/19 10:49:26;;;;;;;;;;;;;;;;;;5009121;28;19948;-73
2021/08/19 10:51:51;;;;;;;;;;;;;;;;;;5011980;28;19924;-72
2021/08/19 10:54:16;;;;;;;;;;;;;;;;;;5014193;28;19941;-71
2021/08/19 10:56:42;;;;;;;;;;;;;;;;;;5024598;28;19963;-72
2021/08/19 10:59:07;;;;;;;;;;;;;;;;;;5011583;28;19925;-71
2021/08/19 11:01:32;;;;;;;;;;;;;;;;;;5006544;28;19917;-71
2021/08/19 11:03:59;;;;;;;;;;;;;;;;;;5022972;28;19945;-73
2021/08/19 11:06:26;;;;;;;;;;;;;;;;;;5002508;28;19918;-72
2021/08/19 11:08:52;;;;;;;;;;;;;;;;;;5008895;28;20786;-72
2021/08/19 11:11:17;;;;;;;;;;;;;;;;;;5005366;28;20445;-70
2021/08/19 11:13:42;;;;;;;;;;;;;;;;;;5028780;28;19926;-70
2021/08/19 11:16:08;;;;;;;;;;;;;;;;;;5006255;28;19924;-71
2021/08/19 11:18:33;;;;;;;;;;;;;;;;;;5004741;28;19953;-72
2021/08/19 11:20:58;;;;;;;;;;;;;;;;;;5024229;28;19961;-71
2021/08/19 11:23:28;;;;;;;;;;;;;;;;;;5039049;28;20044;-71
2021/08/19 11:25:54;;;;;;;;;;;;;;;;;;5040108;28;19960;-70
2021/08/19 11:28:19;;;;;;;;;;;;;;;;;;5011304;28;20156;-72
2021/08/19 11:30:45;;;;;;;;;;;;;;;;;;5023969;28;19913;-70
2021/08/19 11:33:10;;;;;;;;;;;;;;;;;;5012450;28;19917;-71
2021/08/19 11:35:37;;;;;;;;;;;;;;;;;;5010831;28;20442;-71
2021/08/19 11:38:02;;;;;;;;;;;;;;;;;;5015274;28;19918;-71
2021/08/19 11:40:28;;;;;;;;;;;;;;;;;;5027833;28;19988;-71
2021/08/19 11:42:55;;;;;;;;;;;;;;;;;;5010815;28;20079;-70
2021/08/19 11:45:21;;;;;;;;;;;;;;;;;;5009623;28;20350;-72
2021/08/19 11:47:46;;;;;;;;;;;;;;;;;;5043263;28;19955;-70
2021/08/19 11:50:11;;;;;;;;;;;;;;;;;;5010533;28;19921;-71
2021/08/19 11:52:36;;;;;;;;;;;;;;;;;;5008646;28;19945;-72
2021/08/19 11:55:03;;;;;;;;;;;;;;;;;;5013892;28;19921;-71
2021/08/19 11:57:28;;;;;;;;;;;;;;;;;;5045263;28;19928;-71
2021/08/19 11:59:53;;;;;;;;;;;;;;;;;;5011012;28;20401;-70
2021/08/19 12:02:21;;;;;;;;;;;;;;;;;;5026968;28;19939;-70
2021/08/19 12:04:46;;;;;;;;;;;;;;;;;;5043918;28;19917;-70
2021/08/19 12:07:11;;;;;;;;;;;;;;;;;;5011407;28;19922;-71
2021/08/19 12:09:37;;;;;;;;;;;;;;;;;;5026492;28;20094;-71
2021/08/19 12:12:02;;;;;;;;;;;;;;;;;;5011470;28;19944;-71
2021/08/19 12:14:27;;;;;;;;;;;;;;;;;;5010556;28;19921;-71
2021/08/19 12:16:52;;;;;;;;;;;;;;;;;;5009638;28;19917;-71
2021/08/19 12:19:18;;;;;;;;;;;;;;;;;;5009895;28;19917;-71
2021/08/19 12:21:43;;;;;;;;;;;;;;;;;;5007777;28;19917;-71
2021/08/19 12:24:11;;;;;;;;;;;;;;;;;;5024975;28;19914;-68
2021/08/19 12:26:36;;;;;;;;;;;;;;;;;;5025397;28;19985;-71
2021/08/19 12:29:01;;;;;;;;;;;;;;;;;;5007960;28;19932;-70
2021/08/19 12:31:26;;;;;;;;;;;;;;;;;;5037735;28;19918;-69
2021/08/19 12:33:52;;;;;;;;;;;;;;;;;;5007429;28;20017;-71
2021/08/19 12:36:17;;;;;;;;;;;;;;;;;;5009287;28;19997;-71
2021/08/19 12:38:42;;;;;;;;;;;;;;;;;;5009918;28;20021;-69
2021/08/19 12:41:07;;;;;;;;;;;;;;;;;;5013968;28;20026;-70
2021/08/19 12:43:32;;;;;;;;;;;;;;;;;;5009051;28;20637;-69
2021/08/19 12:45:58;;;;;;;;;;;;;;;;;;5010588;28;20521;-71
2021/08/19 12:48:23;;;;;;;;;;;;;;;;;;5022565;28;20331;-69
2021/08/19 12:50:48;;;;;;;;;;;;;;;;;;5025361;28;19969;-72
2021/08/19 12:53:16;;;;;;;;;;;;;;;;;;5011149;28;19925;-69
2021/08/19 12:55:41;;;;;;;;;;;;;;;;;;5010391;28;19921;-70
2021/08/19 12:58:07;;;;;;;;;;;;;;;;;;5008172;28;20233;-71
2021/08/19 13:00:32;;;;;;;;;;;;;;;;;;5026548;28;19927;-71
2021/08/19 13:03:00;;;;;;;;;;;;;;;;;;5038848;28;19941;-71
2021/08/19 13:05:26;;;;;;;;;;;;;;;;;;5010725;28;19914;-70
2021/08/19 13:07:52;;;;;;;;;;;;;;;;;;5040867;28;19926;-70
2021/08/19 13:10:17;;;;;;;;;;;;;;;;;;5038650;28;19924;-71
2021/08/19 13:12:42;;;;;;;;;;;;;;;;;;5007138;28;19969;-73
2021/08/19 13:15:07;;;;;;;;;;;;;;;;;;5008464;28;20276;-72
2021/08/19 13:17:33;;;;;;;;;;;;;;;;;;5007636;28;19918;-71
2021/08/19 13:19:58;;;;;;;;;;;;;;;;;;5006227;28;19921;-71
2021/08/19 13:22:23;;;;;;;;;;;;;;;;;;5007364;28;19924;-72
2021/08/19 13:24:48;;;;;;;;;;;;;;;;;;5040502;28;19918;-72
2021/08/19 13:27:14;;;;;;;;;;;;;;;;;;5022944;28;19945;-73
2021/08/19 13:29:41;;;;;;;;;;;;;;;;;;5007863;28;19993;-73
2021/08/19 13:32:06;;;;;;;;;;;;;;;;;;5042455;28;19957;-75
2021/08/19 13:34:32;;;;;;;;;;;;;;;;;;4998745;28;20437;-75
2021/08/19 13:36:57;;;;;;;;;;;;;;;;;;5010023;28;19976;-78
2021/08/19 13:39:23;;;;;;;;;;;;;;;;;;5010827;28;19926;-76
2021/08/19 13:41:50;;;;;;;;;;;;;;;;;;5015345;28;19929;-75
2021/08/19 13:44:16;;;;;;;;;;;;;;;;;;5016174;28;19941;-75
2021/08/19 13:46:41;;;;;;;;;;;;;;;;;;5011519;28;19913;-76
2021/08/19 13:49:06;;;;;;;;;;;;;;;;;;5008518;28;20446;-76
2021/08/19 13:51:31;;;;;;;;;;;;;;;;;;5016741;28;19963;-76
2021/08/19 13:53:56;;;;;;;;;;;;;;;;;;5013518;28;19989;-75
2021/08/19 13:56:22;;;;;;;;;;;;;;;;;;5009960;28;19921;-75
2021/08/19 13:58:47;;;;;;;;;;;;;;;;;;5024476;28;19925;-75
2021/08/19 14:01:12;;;;;;;;;;;;;;;;;;5010382;28;19965;-76
2021/08/19 14:03:37;;;;;;;;;;;;;;;;;;5010785;28;19921;-76
2021/08/19 14:06:03;;;;;;;;;;;;;;;;;;5009753;28;20380;-74
2021/08/19 14:08:28;;;;;;;;;;;;;;;;;;5012234;28;19926;-75
2021/08/19 14:10:53;;;;;;;;;;;;;;;;;;5023607;28;19991;-75
2021/08/19 14:13:18;;;;;;;;;;;;;;;;;;5012270;28;20000;-74
2021/08/19 14:15:44;;;;;;;;;;;;;;;;;;5008723;28;19977;-76
2021/08/19 14:18:09;;;;;;;;;;;;;;;;;;5008284;28;19924;-74
2021/08/19 14:20:34;;;;;;;;;;;;;;;;;;5011069;28;19948;-76
2021/08/19 14:22:59;;;;;;;;;;;;;;;;;;5011704;28;19914;-74
2021/08/19 14:25:24;;;;;;;;;;;;;;;;;;5013081;28;19980;-76
2021/08/19 14:27:50;;;;;;;;;;;;;;;;;;5009172;28;20024;-75
2021/08/19 14:30:15;;;;;;;;;;;;;;;;;;5008784;28;19920;-75
2021/08/19 14:32:40;;;;;;;;;;;;;;;;;;5041901;28;19921;-76
2021/08/19 14:35:06;;;;;;;;;;;;;;;;;;5042008;28;20446;-74
2021/08/19 14:37:31;;;;;;;;;;;;;;;;;;5009751;28;19925;-75
2021/08/19 14:39:57;;;;;;;;;;;;;;;;;;5011434;28;19917;-74
2021/08/19 14:42:22;;;;;;;;;;;;;;;;;;5015557;28;19992;-75
2021/08/19 14:44:47;;;;;;;;;;;;;;;;;;5015650;28;19936;-76
2021/08/19 14:47:12;;;;;;;;;;;;;;;;;;5010381;28;19928;-76
2021/08/19 14:49:38;;;;;;;;;;;;;;;;;;5009743;28;19925;-75
2021/08/19 14:52:03;;;;;;;;;;;;;;;;;;5008752;28;19977;-77
2021/08/19 14:54:28;;;;;;;;;;;;;;;;;;5012394;28;20443;-76
2021/08/19 14:56:53;;;;;;;;;;;;;;;;;;5010431;28;19918;-76
2021/08/19 14:59:18;;;;;;;;;;;;;;;;;;5010600;28;19925;-74
2021/08/19 15:01:44;;;;;;;;;;;;;;;;;;4998414;28;19914;-74
2021/08/19 15:04:09;;;;;;;;;;;;;;;;;;5013500;28;19979;-75
2021/08/19 15:06:34;;;;;;;;;;;;;;;;;;5016203;28;19956;-74
2021/08/19 15:08:59;;;;;;;;;;;;;;;;;;5015463;28;19925;-77
2021/08/19 15:11:25;;;;;;;;;;;;;;;;;;5015877;28;20016;-74
2021/08/19 15:13:52;;;;;;;;;;;;;;;;;;5012355;28;20243;-74
2021/08/19 15:16:18;;;;;;;;;;;;;;;;;;5009864;28;19985;-80
2021/08/19 15:18:43;;;;;;;;;;;;;;;;;;5014171;28;20008;-79
2021/08/19 15:21:08;;;;;;;;;;;;;;;;;;5005170;28;19923;-76
2021/08/19 15:23:33;;;;;;;;;;;;;;;;;;5045533;28;19924;-77
2021/08/19 15:25:58;;;;;;;;;;;;;;;;;;5006754;28;19923;-77
2021/08/19 15:28:24;;;;;;;;;;;;;;;;;;5023936;28;19960;-76
2021/08/19 15:30:49;;;;;;;;;;;;;;;;;;5012333;28;19918;-77
2021/08/19 15:33:14;;;;;;;;;;;;;;;;;;5007229;28;19945;-77
2021/08/19 15:35:39;;;;;;;;;;;;;;;;;;5015474;28;19918;-76
2021/08/19 15:38:04;;;;;;;;;;;;;;;;;;5007027;28;19918;-75
2021/08/19 15:40:30;;;;;;;;;;;;;;;;;;5006843;28;19914;-76
2021/08/19 15:42:55;;;;;;;;;;;;;;;;;;5010243;28;19985;-76
2021/08/19 15:45:20;;;;;;;;;;;;;;;;;;5006924;28;19918;-76
2021/08/19 15:47:45;;;;;;;;;;;;;;;;;;5011525;28;19928;-75
2021/08/19 15:50:11;;;;;;;;;;;;;;;;;;5006203;28;19918;-75
2021/08/19 15:52:37;;;;;;;;;;;;;;;;;;5004018;28;19929;-77
2021/08/19 15:55:02;;;;;;;;;;;;;;;;;;5012361;28;19936;-77
2021/08/19 15:57:28;;;;;;;;;;;;;;;;;;5006778;28;19917;-74
2021/08/19 15:59:53;;;;;;;;;;;;;;;;;;5011050;28;20208;-75
2021/08/19 16:02:18;;;;;;;;;;;;;;;;;;5024606;28;19917;-76
2021/08/19 16:04:43;;;;;;;;;;;;;;;;;;5007537;28;19981;-76
2021/08/19 16:07:09;;;;;;;;;;;;;;;;;;5011421;28;19924;-75
2021/08/19 16:09:34;;;;;;;;;;;;;;;;;;5006408;28;19929;-74
2021/08/19 16:11:59;;;;;;;;;;;;;;;;;;5010660;28;19933;-75
2021/08/19 16:14:24;;;;;;;;;;;;;;;;;;5004749;28;19917;-75
2021/08/19 16:16:50;;;;;;;;;;;;;;;;;;5003604;28;19917;-75
2021/08/19 16:19:15;;;;;;;;;;;;;;;;;;5009856;28;19918;-76
2021/08/19 16:21:40;;;;;;;;;;;;;;;;;;5039977;28;19920;-75
2021/08/19 16:24:08;;;;;;;;;;;;;;;;;;5014656;28;19952;-75
2021/08/19 16:26:35;;;;;;;;;;;;;;;;;;5009802;28;19921;-75
2021/08/19 16:29:01;;;;;;;;;;;;;;;;;;5004824;28;20362;-75
2021/08/19 16:31:26;;;;;;;;;;;;;;;;;;5010374;28;19960;-74
2021/08/19 16:33:51;;;;;;;;;;;;;;;;;;5021279;28;19913;-75